sensor_id;sensor_type;location;lat;lon;timestamp;P1;durP1;ratioP1;P2;durP2;ratioP2
18046;SDS011;9148;51.454;13.862;2023-04-16T00:02:03;6.97;;;4.33;;
18046;SDS011;9148;51.454;13.862;2023-04-16T00:04:29;8.90;;;4.77;;
18046;SDS011;9148;51.454;13.862;2023-04-16T00:06:54;5.77;;;3.93;;
18046;SDS011;9148;51.454;13.862;2023-04-16T00:09:20;8.90;;;4.70;;
18046;SDS011;9148;51.454;13.862;2023-04-16T00:11:46;7.37;;;4.37;;
18046;SDS011;9148;51.454;13.862;2023-04-16T00:14:11;4.70;;;3.90;;
18046;SDS011;9148;51.454;13.862;2023-04-16T00:16:37;5.37;;;3.43;;
18046;SDS011;9148;51.454;13.862;2023-04-16T00:19:03;3.77;;;3.17;;
18046;SDS011;9148;51.454;13.862;2023-04-16T00:21:28;4.63;;;3.70;;
18046;SDS011;9148;51.454;13.862;2023-04-16T00:23:55;7.07;;;4.43;;
18046;SDS011;9148;51.454;13.862;2023-04-16T00:26:20;6.23;;;5.13;;
18046;SDS011;9148;51.454;13.862;2023-04-16T00:28:46;7.10;;;4.73;;
18046;SDS011;9148;51.454;13.862;2023-04-16T00:31:12;4.77;;;4.07;;
18046;SDS011;9148;51.454;13.862;2023-04-16T00:33:37;7.17;;;4.70;;
18046;SDS011;9148;51.454;13.862;2023-04-16T00:36:06;5.97;;;4.33;;
18046;SDS011;9148;51.454;13.862;2023-04-16T00:38:33;6.57;;;5.00;;
18046;SDS011;9148;51.454;13.862;2023-04-16T00:40:59;4.50;;;3.63;;
18046;SDS011;9148;51.454;13.862;2023-04-16T00:43:25;5.87;;;2.93;;
18046;SDS011;9148;51.454;13.862;2023-04-16T00:45:51;5.17;;;4.03;;
18046;SDS011;9148;51.454;13.862;2023-04-16T00:48:20;4.27;;;3.10;;
18046;SDS011;9148;51.454;13.862;2023-04-16T00:50:46;4.40;;;3.60;;
18046;SDS011;9148;51.454;13.862;2023-04-16T00:53:13;4.73;;;3.67;;
18046;SDS011;9148;51.454;13.862;2023-04-16T00:55:39;4.20;;;3.77;;
18046;SDS011;9148;51.454;13.862;2023-04-16T00:58:05;7.60;;;3.67;;
18046;SDS011;9148;51.454;13.862;2023-04-16T01:00:30;5.90;;;4.47;;
18046;SDS011;9148;51.454;13.862;2023-04-16T01:02:56;4.60;;;4.03;;
18046;SDS011;9148;51.454;13.862;2023-04-16T01:05:24;5.30;;;3.77;;
18046;SDS011;9148;51.454;13.862;2023-04-16T01:07:50;4.93;;;4.33;;
18046;SDS011;9148;51.454;13.862;2023-04-16T01:10:16;6.30;;;4.20;;
18046;SDS011;9148;51.454;13.862;2023-04-16T01:12:41;5.03;;;4.07;;
18046;SDS011;9148;51.454;13.862;2023-04-16T01:15:07;4.60;;;3.87;;
18046;SDS011;9148;51.454;13.862;2023-04-16T01:17:33;6.77;;;4.17;;
18046;SDS011;9148;51.454;13.862;2023-04-16T01:19:59;4.60;;;3.53;;
18046;SDS011;9148;51.454;13.862;2023-04-16T01:22:26;5.20;;;3.60;;
18046;SDS011;9148;51.454;13.862;2023-04-16T01:24:52;7.20;;;4.00;;
18046;SDS011;9148;51.454;13.862;2023-04-16T01:27:18;6.80;;;4.80;;
18046;SDS011;9148;51.454;13.862;2023-04-16T01:29:43;5.10;;;4.20;;
18046;SDS011;9148;51.454;13.862;2023-04-16T01:32:09;7.17;;;4.37;;
18046;SDS011;9148;51.454;13.862;2023-04-16T01:34:35;7.07;;;4.97;;
18046;SDS011;9148;51.454;13.862;2023-04-16T01:37:01;6.33;;;4.33;;
18046;SDS011;9148;51.454;13.862;2023-04-16T01:39:27;5.77;;;3.57;;
18046;SDS011;9148;51.454;13.862;2023-04-16T01:41:53;4.53;;;3.80;;
18046;SDS011;9148;51.454;13.862;2023-04-16T01:44:19;5.23;;;4.03;;
18046;SDS011;9148;51.454;13.862;2023-04-16T01:46:45;4.07;;;3.67;;
18046;SDS011;9148;51.454;13.862;2023-04-16T01:49:11;5.43;;;4.20;;
18046;SDS011;9148;51.454;13.862;2023-04-16T01:51:37;3.97;;;3.37;;
18046;SDS011;9148;51.454;13.862;2023-04-16T01:54:03;5.57;;;4.03;;
18046;SDS011;9148;51.454;13.862;2023-04-16T01:56:29;5.70;;;4.47;;
18046;SDS011;9148;51.454;13.862;2023-04-16T01:58:54;4.07;;;3.30;;
18046;SDS011;9148;51.454;13.862;2023-04-16T02:01:20;6.33;;;3.60;;
18046;SDS011;9148;51.454;13.862;2023-04-16T02:03:46;4.60;;;4.20;;
18046;SDS011;9148;51.454;13.862;2023-04-16T02:06:11;6.53;;;4.37;;
18046;SDS011;9148;51.454;13.862;2023-04-16T02:08:37;5.63;;;3.80;;
18046;SDS011;9148;51.454;13.862;2023-04-16T02:11:03;5.47;;;4.10;;
18046;SDS011;9148;51.454;13.862;2023-04-16T02:13:28;4.90;;;3.67;;
18046;SDS011;9148;51.454;13.862;2023-04-16T02:15:54;4.80;;;3.57;;
18046;SDS011;9148;51.454;13.862;2023-04-16T02:18:20;5.27;;;3.63;;
18046;SDS011;9148;51.454;13.862;2023-04-16T02:20:45;5.03;;;3.47;;
18046;SDS011;9148;51.454;13.862;2023-04-16T02:23:13;4.77;;;3.90;;
18046;SDS011;9148;51.454;13.862;2023-04-16T02:25:39;7.77;;;4.30;;
18046;SDS011;9148;51.454;13.862;2023-04-16T02:28:10;3.27;;;2.97;;
18046;SDS011;9148;51.454;13.862;2023-04-16T02:30:39;5.33;;;3.57;;
18046;SDS011;9148;51.454;13.862;2023-04-16T02:33:07;4.60;;;3.17;;
18046;SDS011;9148;51.454;13.862;2023-04-16T02:35:35;4.20;;;3.13;;
18046;SDS011;9148;51.454;13.862;2023-04-16T02:38:02;4.13;;;3.33;;
18046;SDS011;9148;51.454;13.862;2023-04-16T02:40:29;5.53;;;3.33;;
18046;SDS011;9148;51.454;13.862;2023-04-16T02:42:56;5.73;;;3.93;;
18046;SDS011;9148;51.454;13.862;2023-04-16T02:45:22;4.03;;;3.33;;
18046;SDS011;9148;51.454;13.862;2023-04-16T02:47:48;4.93;;;2.73;;
18046;SDS011;9148;51.454;13.862;2023-04-16T02:50:15;6.00;;;3.40;;
18046;SDS011;9148;51.454;13.862;2023-04-16T02:52:41;4.37;;;3.40;;
18046;SDS011;9148;51.454;13.862;2023-04-16T02:55:07;5.70;;;3.17;;
18046;SDS011;9148;51.454;13.862;2023-04-16T02:57:34;4.47;;;3.67;;
18046;SDS011;9148;51.454;13.862;2023-04-16T02:59:59;6.30;;;2.80;;
18046;SDS011;9148;51.454;13.862;2023-04-16T03:02:25;5.43;;;4.07;;
18046;SDS011;9148;51.454;13.862;2023-04-16T03:04:54;5.10;;;3.50;;
18046;SDS011;9148;51.454;13.862;2023-04-16T03:07:20;5.17;;;3.97;;
18046;SDS011;9148;51.454;13.862;2023-04-16T03:09:46;4.93;;;3.30;;
18046;SDS011;9148;51.454;13.862;2023-04-16T03:12:11;3.97;;;3.07;;
18046;SDS011;9148;51.454;13.862;2023-04-16T03:14:37;5.57;;;3.40;;
18046;SDS011;9148;51.454;13.862;2023-04-16T03:17:02;5.03;;;3.57;;
18046;SDS011;9148;51.454;13.862;2023-04-16T03:19:28;3.97;;;3.33;;
18046;SDS011;9148;51.454;13.862;2023-04-16T03:21:54;4.00;;;3.57;;
18046;SDS011;9148;51.454;13.862;2023-04-16T03:24:20;5.63;;;3.20;;
18046;SDS011;9148;51.454;13.862;2023-04-16T03:26:46;5.00;;;3.20;;
18046;SDS011;9148;51.454;13.862;2023-04-16T03:29:11;3.57;;;3.10;;
18046;SDS011;9148;51.454;13.862;2023-04-16T03:31:37;5.50;;;2.97;;
18046;SDS011;9148;51.454;13.862;2023-04-16T03:34:02;5.07;;;3.17;;
18046;SDS011;9148;51.454;13.862;2023-04-16T03:36:28;5.43;;;4.37;;
18046;SDS011;9148;51.454;13.862;2023-04-16T03:38:54;3.57;;;3.27;;
18046;SDS011;9148;51.454;13.862;2023-04-16T03:41:20;5.37;;;4.10;;
18046;SDS011;9148;51.454;13.862;2023-04-16T03:43:46;6.73;;;3.90;;
18046;SDS011;9148;51.454;13.862;2023-04-16T03:46:11;5.40;;;4.40;;
18046;SDS011;9148;51.454;13.862;2023-04-16T03:48:37;6.17;;;4.37;;
18046;SDS011;9148;51.454;13.862;2023-04-16T03:51:03;6.77;;;4.73;;
18046;SDS011;9148;51.454;13.862;2023-04-16T03:53:28;6.73;;;5.23;;
18046;SDS011;9148;51.454;13.862;2023-04-16T03:55:54;15.97;;;6.07;;
18046;SDS011;9148;51.454;13.862;2023-04-16T03:58:20;8.63;;;5.00;;
18046;SDS011;9148;51.454;13.862;2023-04-16T04:00:46;11.87;;;5.03;;
18046;SDS011;9148;51.454;13.862;2023-04-16T04:03:11;10.07;;;5.97;;
18046;SDS011;9148;51.454;13.862;2023-04-16T04:05:40;7.77;;;5.43;;
18046;SDS011;9148;51.454;13.862;2023-04-16T04:08:07;9.07;;;5.10;;
18046;SDS011;9148;51.454;13.862;2023-04-16T04:10:33;11.60;;;7.27;;
18046;SDS011;9148;51.454;13.862;2023-04-16T04:13:01;10.67;;;6.30;;
18046;SDS011;9148;51.454;13.862;2023-04-16T04:15:28;11.83;;;6.00;;
18046;SDS011;9148;51.454;13.862;2023-04-16T04:17:54;8.57;;;6.10;;
18046;SDS011;9148;51.454;13.862;2023-04-16T04:20:20;12.30;;;6.27;;
18046;SDS011;9148;51.454;13.862;2023-04-16T04:22:46;6.27;;;3.77;;
18046;SDS011;9148;51.454;13.862;2023-04-16T04:25:12;7.33;;;6.20;;
18046;SDS011;9148;51.454;13.862;2023-04-16T04:27:37;5.53;;;4.37;;
18046;SDS011;9148;51.454;13.862;2023-04-16T04:30:03;9.23;;;5.33;;
18046;SDS011;9148;51.454;13.862;2023-04-16T04:32:30;7.07;;;4.50;;
18046;SDS011;9148;51.454;13.862;2023-04-16T04:34:56;8.80;;;5.43;;
18046;SDS011;9148;51.454;13.862;2023-04-16T04:37:24;5.97;;;5.10;;
18046;SDS011;9148;51.454;13.862;2023-04-16T04:39:50;6.57;;;4.43;;
18046;SDS011;9148;51.454;13.862;2023-04-16T04:42:16;7.27;;;5.37;;
18046;SDS011;9148;51.454;13.862;2023-04-16T04:44:43;11.87;;;5.33;;
18046;SDS011;9148;51.454;13.862;2023-04-16T04:47:09;10.57;;;5.93;;
18046;SDS011;9148;51.454;13.862;2023-04-16T04:49:35;8.47;;;4.50;;
18046;SDS011;9148;51.454;13.862;2023-04-16T04:52:00;6.57;;;5.07;;
18046;SDS011;9148;51.454;13.862;2023-04-16T04:54:29;8.63;;;4.63;;
18046;SDS011;9148;51.454;13.862;2023-04-16T04:56:55;8.10;;;5.00;;
18046;SDS011;9148;51.454;13.862;2023-04-16T04:59:21;5.80;;;4.20;;
18046;SDS011;9148;51.454;13.862;2023-04-16T05:01:48;5.77;;;4.27;;
18046;SDS011;9148;51.454;13.862;2023-04-16T05:04:14;8.07;;;4.97;;
18046;SDS011;9148;51.454;13.862;2023-04-16T05:06:39;4.60;;;4.07;;
18046;SDS011;9148;51.454;13.862;2023-04-16T05:09:05;8.00;;;4.73;;
18046;SDS011;9148;51.454;13.862;2023-04-16T05:11:35;6.43;;;4.70;;
18046;SDS011;9148;51.454;13.862;2023-04-16T05:14:02;5.73;;;4.07;;
18046;SDS011;9148;51.454;13.862;2023-04-16T05:16:28;6.40;;;5.10;;
18046;SDS011;9148;51.454;13.862;2023-04-16T05:18:53;6.73;;;4.67;;
18046;SDS011;9148;51.454;13.862;2023-04-16T05:21:20;9.70;;;4.37;;
18046;SDS011;9148;51.454;13.862;2023-04-16T05:23:46;5.73;;;4.60;;
18046;SDS011;9148;51.454;13.862;2023-04-16T05:26:11;6.33;;;4.30;;
18046;SDS011;9148;51.454;13.862;2023-04-16T05:28:37;7.27;;;4.50;;
18046;SDS011;9148;51.454;13.862;2023-04-16T05:31:03;7.73;;;4.93;;
18046;SDS011;9148;51.454;13.862;2023-04-16T05:33:28;7.03;;;4.63;;
18046;SDS011;9148;51.454;13.862;2023-04-16T05:35:54;6.17;;;4.03;;
18046;SDS011;9148;51.454;13.862;2023-04-16T05:38:20;5.30;;;3.67;;
18046;SDS011;9148;51.454;13.862;2023-04-16T05:40:45;9.20;;;6.00;;
18046;SDS011;9148;51.454;13.862;2023-04-16T05:43:11;7.70;;;4.10;;
18046;SDS011;9148;51.454;13.862;2023-04-16T05:45:37;8.47;;;5.30;;
18046;SDS011;9148;51.454;13.862;2023-04-16T05:48:06;6.30;;;4.83;;
18046;SDS011;9148;51.454;13.862;2023-04-16T05:50:35;8.57;;;4.60;;
18046;SDS011;9148;51.454;13.862;2023-04-16T05:53:03;5.57;;;4.20;;
18046;SDS011;9148;51.454;13.862;2023-04-16T05:55:31;10.30;;;5.03;;
18046;SDS011;9148;51.454;13.862;2023-04-16T05:57:57;8.10;;;5.37;;
18046;SDS011;9148;51.454;13.862;2023-04-16T06:00:23;7.03;;;4.70;;
18046;SDS011;9148;51.454;13.862;2023-04-16T06:02:49;6.40;;;3.70;;
18046;SDS011;9148;51.454;13.862;2023-04-16T06:05:15;4.87;;;3.90;;
18046;SDS011;9148;51.454;13.862;2023-04-16T06:07:40;6.27;;;4.57;;
18046;SDS011;9148;51.454;13.862;2023-04-16T06:10:06;10.07;;;5.80;;
18046;SDS011;9148;51.454;13.862;2023-04-16T06:12:32;9.77;;;4.93;;
18046;SDS011;9148;51.454;13.862;2023-04-16T06:14:58;8.53;;;5.97;;
18046;SDS011;9148;51.454;13.862;2023-04-16T06:17:25;7.43;;;5.20;;
18046;SDS011;9148;51.454;13.862;2023-04-16T06:19:51;8.10;;;5.13;;
18046;SDS011;9148;51.454;13.862;2023-04-16T06:22:16;7.57;;;5.17;;
18046;SDS011;9148;51.454;13.862;2023-04-16T06:24:42;9.27;;;4.87;;
18046;SDS011;9148;51.454;13.862;2023-04-16T06:27:08;5.43;;;4.70;;
18046;SDS011;9148;51.454;13.862;2023-04-16T06:29:34;8.67;;;4.80;;
18046;SDS011;9148;51.454;13.862;2023-04-16T06:32:00;7.50;;;4.80;;
18046;SDS011;9148;51.454;13.862;2023-04-16T06:34:27;7.87;;;5.33;;
18046;SDS011;9148;51.454;13.862;2023-04-16T06:36:52;5.40;;;3.97;;
18046;SDS011;9148;51.454;13.862;2023-04-16T06:39:18;10.53;;;5.00;;
18046;SDS011;9148;51.454;13.862;2023-04-16T06:41:45;6.83;;;4.93;;
18046;SDS011;9148;51.454;13.862;2023-04-16T06:44:12;8.77;;;5.80;;
18046;SDS011;9148;51.454;13.862;2023-04-16T06:46:38;6.17;;;4.87;;
18046;SDS011;9148;51.454;13.862;2023-04-16T06:49:05;8.20;;;4.73;;
18046;SDS011;9148;51.454;13.862;2023-04-16T06:51:31;9.07;;;6.43;;
18046;SDS011;9148;51.454;13.862;2023-04-16T06:53:57;8.07;;;6.00;;
18046;SDS011;9148;51.454;13.862;2023-04-16T06:56:23;9.37;;;5.77;;
18046;SDS011;9148;51.454;13.862;2023-04-16T06:58:48;8.43;;;5.23;;
18046;SDS011;9148;51.454;13.862;2023-04-16T07:01:15;7.90;;;5.20;;
18046;SDS011;9148;51.454;13.862;2023-04-16T07:03:42;7.33;;;5.27;;
18046;SDS011;9148;51.454;13.862;2023-04-16T07:06:07;6.83;;;5.70;;
18046;SDS011;9148;51.454;13.862;2023-04-16T07:08:34;9.13;;;5.97;;
18046;SDS011;9148;51.454;13.862;2023-04-16T07:10:59;7.00;;;5.50;;
18046;SDS011;9148;51.454;13.862;2023-04-16T07:13:25;8.43;;;4.90;;
18046;SDS011;9148;51.454;13.862;2023-04-16T07:15:51;8.77;;;5.07;;
18046;SDS011;9148;51.454;13.862;2023-04-16T07:18:17;5.03;;;4.10;;
18046;SDS011;9148;51.454;13.862;2023-04-16T07:20:43;9.70;;;5.57;;
18046;SDS011;9148;51.454;13.862;2023-04-16T07:23:09;9.03;;;5.63;;
18046;SDS011;9148;51.454;13.862;2023-04-16T07:25:35;6.27;;;5.27;;
18046;SDS011;9148;51.454;13.862;2023-04-16T07:28:01;10.60;;;6.20;;
18046;SDS011;9148;51.454;13.862;2023-04-16T07:30:27;6.93;;;4.30;;
18046;SDS011;9148;51.454;13.862;2023-04-16T07:32:58;7.43;;;5.00;;
18046;SDS011;9148;51.454;13.862;2023-04-16T07:35:25;7.53;;;5.10;;
18046;SDS011;9148;51.454;13.862;2023-04-16T07:37:51;5.83;;;4.33;;
18046;SDS011;9148;51.454;13.862;2023-04-16T07:40:17;6.33;;;4.23;;
18046;SDS011;9148;51.454;13.862;2023-04-16T07:42:42;6.77;;;4.53;;
18046;SDS011;9148;51.454;13.862;2023-04-16T07:45:08;4.97;;;4.23;;
18046;SDS011;9148;51.454;13.862;2023-04-16T07:47:34;6.03;;;4.27;;
18046;SDS011;9148;51.454;13.862;2023-04-16T07:50:00;6.53;;;4.40;;
18046;SDS011;9148;51.454;13.862;2023-04-16T07:52:26;6.43;;;3.83;;
18046;SDS011;9148;51.454;13.862;2023-04-16T07:54:51;7.20;;;4.80;;
18046;SDS011;9148;51.454;13.862;2023-04-16T07:57:17;6.17;;;3.87;;
18046;SDS011;9148;51.454;13.862;2023-04-16T07:59:43;6.20;;;4.53;;
18046;SDS011;9148;51.454;13.862;2023-04-16T08:02:10;5.47;;;2.90;;
18046;SDS011;9148;51.454;13.862;2023-04-16T08:04:40;5.43;;;3.40;;
18046;SDS011;9148;51.454;13.862;2023-04-16T08:07:06;4.00;;;3.60;;
18046;SDS011;9148;51.454;13.862;2023-04-16T08:09:32;7.40;;;4.17;;
18046;SDS011;9148;51.454;13.862;2023-04-16T08:11:59;6.00;;;3.97;;
18046;SDS011;9148;51.454;13.862;2023-04-16T08:14:26;8.67;;;4.77;;
18046;SDS011;9148;51.454;13.862;2023-04-16T08:16:52;4.30;;;3.33;;
18046;SDS011;9148;51.454;13.862;2023-04-16T08:19:17;4.93;;;3.22;;
18046;SDS011;9148;51.454;13.862;2023-04-16T08:21:43;7.63;;;4.53;;
18046;SDS011;9148;51.454;13.862;2023-04-16T08:24:09;4.67;;;3.77;;
18046;SDS011;9148;51.454;13.862;2023-04-16T08:26:35;5.90;;;3.97;;
18046;SDS011;9148;51.454;13.862;2023-04-16T08:29:01;4.35;;;3.58;;
18046;SDS011;9148;51.454;13.862;2023-04-16T08:31:26;3.70;;;3.03;;
18046;SDS011;9148;51.454;13.862;2023-04-16T08:33:52;3.88;;;3.17;;
18046;SDS011;9148;51.454;13.862;2023-04-16T08:36:18;5.40;;;3.22;;
18046;SDS011;9148;51.454;13.862;2023-04-16T08:38:43;4.60;;;2.60;;
18046;SDS011;9148;51.454;13.862;2023-04-16T08:41:11;4.65;;;2.83;;
18046;SDS011;9148;51.454;13.862;2023-04-16T08:43:38;4.72;;;3.42;;
18046;SDS011;9148;51.454;13.862;2023-04-16T08:46:08;5.35;;;3.75;;
18046;SDS011;9148;51.454;13.862;2023-04-16T08:48:36;5.45;;;3.03;;
18046;SDS011;9148;51.454;13.862;2023-04-16T08:51:03;3.35;;;2.97;;
18046;SDS011;9148;51.454;13.862;2023-04-16T08:53:35;4.80;;;2.90;;
18046;SDS011;9148;51.454;13.862;2023-04-16T08:56:20;3.79;;;2.46;;
18046;SDS011;9148;51.454;13.862;2023-04-16T08:58:47;5.40;;;3.55;;
18046;SDS011;9148;51.454;13.862;2023-04-16T09:01:15;3.85;;;2.47;;
18046;SDS011;9148;51.454;13.862;2023-04-16T09:03:43;1.67;;;1.58;;
18046;SDS011;9148;51.454;13.862;2023-04-16T09:06:12;5.20;;;2.10;;
18046;SDS011;9148;51.454;13.862;2023-04-16T09:08:39;2.83;;;2.30;;
18046;SDS011;9148;51.454;13.862;2023-04-16T09:11:07;4.60;;;2.13;;
18046;SDS011;9148;51.454;13.862;2023-04-16T09:13:33;2.53;;;1.77;;
18046;SDS011;9148;51.454;13.862;2023-04-16T09:16:02;4.40;;;2.08;;
18046;SDS011;9148;51.454;13.862;2023-04-16T09:18:29;3.63;;;2.33;;
18046;SDS011;9148;51.454;13.862;2023-04-16T09:20:55;3.10;;;2.40;;
18046;SDS011;9148;51.454;13.862;2023-04-16T09:23:21;2.55;;;2.33;;
18046;SDS011;9148;51.454;13.862;2023-04-16T09:25:47;1.90;;;1.73;;
18046;SDS011;9148;51.454;13.862;2023-04-16T09:28:36;5.25;;;1.80;;
18046;SDS011;9148;51.454;13.862;2023-04-16T09:31:09;1.83;;;1.42;;
18046;SDS011;9148;51.454;13.862;2023-04-16T09:33:43;2.25;;;1.20;;
18046;SDS011;9148;51.454;13.862;2023-04-16T09:36:28;1.88;;;1.23;;
18046;SDS011;9148;51.454;13.862;2023-04-16T09:38:56;1.67;;;1.30;;
18046;SDS011;9148;51.454;13.862;2023-04-16T09:41:24;1.27;;;1.00;;
18046;SDS011;9148;51.454;13.862;2023-04-16T09:43:54;1.95;;;1.27;;
18046;SDS011;9148;51.454;13.862;2023-04-16T09:46:29;0.80;;;0.80;;
18046;SDS011;9148;51.454;13.862;2023-04-16T09:48:56;3.63;;;1.17;;
18046;SDS011;9148;51.454;13.862;2023-04-16T09:51:22;1.17;;;1.08;;
18046;SDS011;9148;51.454;13.862;2023-04-16T09:53:55;1.58;;;1.15;;
18046;SDS011;9148;51.454;13.862;2023-04-16T09:56:24;1.33;;;1.10;;
18046;SDS011;9148;51.454;13.862;2023-04-16T09:58:50;1.38;;;1.08;;
18046;SDS011;9148;51.454;13.862;2023-04-16T10:01:21;1.38;;;1.27;;
18046;SDS011;9148;51.454;13.862;2023-04-16T10:03:48;2.13;;;0.70;;
18046;SDS011;9148;51.454;13.862;2023-04-16T10:06:18;0.85;;;0.60;;
18046;SDS011;9148;51.454;13.862;2023-04-16T10:08:50;1.65;;;0.95;;
18046;SDS011;9148;51.454;13.862;2023-04-16T10:11:20;1.92;;;1.48;;
18046;SDS011;9148;51.454;13.862;2023-04-16T10:13:46;1.45;;;1.17;;
18046;SDS011;9148;51.454;13.862;2023-04-16T10:16:12;1.65;;;1.05;;
18046;SDS011;9148;51.454;13.862;2023-04-16T10:18:39;0.93;;;0.85;;
18046;SDS011;9148;51.454;13.862;2023-04-16T10:21:07;3.15;;;1.55;;
18046;SDS011;9148;51.454;13.862;2023-04-16T10:23:40;1.42;;;0.93;;
18046;SDS011;9148;51.454;13.862;2023-04-16T10:26:07;1.73;;;1.13;;
18046;SDS011;9148;51.454;13.862;2023-04-16T10:28:33;1.92;;;1.23;;
18046;SDS011;9148;51.454;13.862;2023-04-16T10:31:00;1.02;;;1.00;;
18046;SDS011;9148;51.454;13.862;2023-04-16T10:33:29;1.27;;;1.17;;
18046;SDS011;9148;51.454;13.862;2023-04-16T10:36:14;2.17;;;1.27;;
18046;SDS011;9148;51.454;13.862;2023-04-16T10:38:48;1.83;;;1.55;;
18046;SDS011;9148;51.454;13.862;2023-04-16T10:41:16;2.95;;;1.58;;
18046;SDS011;9148;51.454;13.862;2023-04-16T10:43:45;2.72;;;1.98;;
18046;SDS011;9148;51.454;13.862;2023-04-16T10:49:00;1.75;;;1.40;;
18046;SDS011;9148;51.454;13.862;2023-04-16T10:51:34;2.53;;;1.80;;
18046;SDS011;9148;51.454;13.862;2023-04-16T10:56:36;2.85;;;1.55;;
18046;SDS011;9148;51.454;13.862;2023-04-16T10:59:05;1.30;;;1.00;;
18046;SDS011;9148;51.454;13.862;2023-04-16T11:01:35;1.42;;;1.23;;
18046;SDS011;9148;51.454;13.862;2023-04-16T11:15:03;2.40;;;1.73;;
18046;SDS011;9148;51.454;13.862;2023-04-16T11:20:04;2.88;;;2.17;;
18046;SDS011;9148;51.454;13.862;2023-04-16T11:22:39;1.73;;;1.45;;
18046;SDS011;9148;51.454;13.862;2023-04-16T11:25:06;2.10;;;1.38;;
18046;SDS011;9148;51.454;13.862;2023-04-16T11:27:33;2.33;;;1.10;;
18046;SDS011;9148;51.454;13.862;2023-04-16T11:30:02;1.77;;;1.27;;
18046;SDS011;9148;51.454;13.862;2023-04-16T11:32:32;1.58;;;1.48;;
18046;SDS011;9148;51.454;13.862;2023-04-16T11:35:00;2.58;;;1.60;;
18046;SDS011;9148;51.454;13.862;2023-04-16T11:37:46;1.77;;;1.33;;
18046;SDS011;9148;51.454;13.862;2023-04-16T11:40:12;1.88;;;1.73;;
18046;SDS011;9148;51.454;13.862;2023-04-16T11:42:39;3.45;;;2.05;;
18046;SDS011;9148;51.454;13.862;2023-04-16T11:45:06;4.43;;;2.15;;
18046;SDS011;9148;51.454;13.862;2023-04-16T11:47:43;1.98;;;1.75;;
18046;SDS011;9148;51.454;13.862;2023-04-16T11:50:17;2.47;;;1.38;;
18046;SDS011;9148;51.454;13.862;2023-04-16T11:52:51;1.85;;;1.40;;
18046;SDS011;9148;51.454;13.862;2023-04-16T11:55:19;4.22;;;1.63;;
18046;SDS011;9148;51.454;13.862;2023-04-16T11:57:45;1.75;;;1.58;;
18046;SDS011;9148;51.454;13.862;2023-04-16T12:00:11;1.42;;;1.33;;
18046;SDS011;9148;51.454;13.862;2023-04-16T12:08:06;2.25;;;1.85;;
18046;SDS011;9148;51.454;13.862;2023-04-16T12:10:35;2.63;;;1.90;;
18046;SDS011;9148;51.454;13.862;2023-04-16T12:13:12;3.83;;;1.55;;
18046;SDS011;9148;51.454;13.862;2023-04-16T12:15:42;2.40;;;1.95;;
18046;SDS011;9148;51.454;13.862;2023-04-16T12:18:09;2.20;;;1.95;;
18046;SDS011;9148;51.454;13.862;2023-04-16T12:20:39;1.50;;;1.33;;
18046;SDS011;9148;51.454;13.862;2023-04-16T12:23:08;2.88;;;1.77;;
18046;SDS011;9148;51.454;13.862;2023-04-16T12:25:35;2.83;;;1.65;;
18046;SDS011;9148;51.454;13.862;2023-04-16T12:28:01;2.25;;;1.95;;
18046;SDS011;9148;51.454;13.862;2023-04-16T12:30:27;1.52;;;1.42;;
18046;SDS011;9148;51.454;13.862;2023-04-16T12:33:13;2.50;;;2.13;;
18046;SDS011;9148;51.454;13.862;2023-04-16T12:35:41;2.92;;;2.00;;
18046;SDS011;9148;51.454;13.862;2023-04-16T12:38:09;1.90;;;1.63;;
18046;SDS011;9148;51.454;13.862;2023-04-16T12:40:36;2.03;;;1.88;;
18046;SDS011;9148;51.454;13.862;2023-04-16T12:43:02;2.13;;;1.98;;
18046;SDS011;9148;51.454;13.862;2023-04-16T12:45:28;2.47;;;1.80;;
18046;SDS011;9148;51.454;13.862;2023-04-16T12:47:54;2.28;;;1.80;;
18046;SDS011;9148;51.454;13.862;2023-04-16T12:50:20;3.28;;;1.70;;
18046;SDS011;9148;51.454;13.862;2023-04-16T12:52:46;1.98;;;1.77;;
18046;SDS011;9148;51.454;13.862;2023-04-16T12:55:12;2.08;;;1.70;;
18046;SDS011;9148;51.454;13.862;2023-04-16T12:57:38;1.27;;;1.13;;
18046;SDS011;9148;51.454;13.862;2023-04-16T13:00:04;2.78;;;1.70;;
18046;SDS011;9148;51.454;13.862;2023-04-16T13:02:34;1.73;;;1.23;;
18046;SDS011;9148;51.454;13.862;2023-04-16T13:05:00;1.85;;;1.40;;
18046;SDS011;9148;51.454;13.862;2023-04-16T13:07:26;1.77;;;1.63;;
18046;SDS011;9148;51.454;13.862;2023-04-16T13:09:52;3.05;;;2.00;;
18046;SDS011;9148;51.454;13.862;2023-04-16T13:12:18;2.47;;;1.40;;
18046;SDS011;9148;51.454;13.862;2023-04-16T13:14:43;2.55;;;1.60;;
18046;SDS011;9148;51.454;13.862;2023-04-16T13:17:09;2.35;;;1.13;;
18046;SDS011;9148;51.454;13.862;2023-04-16T13:19:35;2.05;;;0.95;;
18046;SDS011;9148;51.454;13.862;2023-04-16T13:22:01;2.05;;;1.60;;
18046;SDS011;9148;51.454;13.862;2023-04-16T13:24:26;1.60;;;1.40;;
18046;SDS011;9148;51.454;13.862;2023-04-16T13:26:52;1.75;;;1.17;;
18046;SDS011;9148;51.454;13.862;2023-04-16T13:29:18;1.45;;;1.30;;
18046;SDS011;9148;51.454;13.862;2023-04-16T13:31:44;2.08;;;1.67;;
18046;SDS011;9148;51.454;13.862;2023-04-16T13:34:10;2.10;;;1.17;;
18046;SDS011;9148;51.454;13.862;2023-04-16T13:36:36;1.02;;;0.95;;
18046;SDS011;9148;51.454;13.862;2023-04-16T13:39:02;1.13;;;1.10;;
18046;SDS011;9148;51.454;13.862;2023-04-16T13:41:35;1.50;;;1.23;;
18046;SDS011;9148;51.454;13.862;2023-04-16T13:44:01;1.48;;;0.77;;
18046;SDS011;9148;51.454;13.862;2023-04-16T13:46:27;1.83;;;0.98;;
18046;SDS011;9148;51.454;13.862;2023-04-16T13:48:53;1.00;;;0.90;;
18046;SDS011;9148;51.454;13.862;2023-04-16T13:51:19;1.05;;;0.40;;
18046;SDS011;9148;51.454;13.862;2023-04-16T13:53:45;0.82;;;0.68;;
18046;SDS011;9148;51.454;13.862;2023-04-16T13:56:11;1.58;;;0.77;;
18046;SDS011;9148;51.454;13.862;2023-04-16T13:58:37;0.75;;;0.75;;
18046;SDS011;9148;51.454;13.862;2023-04-16T14:01:03;1.35;;;1.15;;
18046;SDS011;9148;51.454;13.862;2023-04-16T14:03:28;1.55;;;0.77;;
18046;SDS011;9148;51.454;13.862;2023-04-16T14:05:54;1.35;;;0.98;;
18046;SDS011;9148;51.454;13.862;2023-04-16T14:08:20;1.50;;;1.05;;
18046;SDS011;9148;51.454;13.862;2023-04-16T14:10:46;2.22;;;0.98;;
18046;SDS011;9148;51.454;13.862;2023-04-16T14:13:12;2.40;;;1.30;;
18046;SDS011;9148;51.454;13.862;2023-04-16T14:15:38;0.75;;;0.65;;
18046;SDS011;9148;51.454;13.862;2023-04-16T14:18:03;1.02;;;0.68;;
18046;SDS011;9148;51.454;13.862;2023-04-16T14:20:29;1.50;;;0.80;;
18046;SDS011;9148;51.454;13.862;2023-04-16T14:23:04;0.43;;;0.43;;
18046;SDS011;9148;51.454;13.862;2023-04-16T14:25:30;0.60;;;0.60;;
18046;SDS011;9148;51.454;13.862;2023-04-16T14:27:59;0.65;;;0.45;;
18046;SDS011;9148;51.454;13.862;2023-04-16T14:30:25;2.17;;;1.00;;
18046;SDS011;9148;51.454;13.862;2023-04-16T14:32:51;1.05;;;0.88;;
18046;SDS011;9148;51.454;13.862;2023-04-16T14:35:16;1.00;;;0.98;;
18046;SDS011;9148;51.454;13.862;2023-04-16T14:37:42;1.33;;;0.82;;
18046;SDS011;9148;51.454;13.862;2023-04-16T14:40:08;1.05;;;0.80;;
18046;SDS011;9148;51.454;13.862;2023-04-16T14:42:35;1.13;;;0.93;;
18046;SDS011;9148;51.454;13.862;2023-04-16T14:45:01;1.63;;;1.52;;
18046;SDS011;9148;51.454;13.862;2023-04-16T14:47:30;3.30;;;0.47;;
18046;SDS011;9148;51.454;13.862;2023-04-16T14:50:01;1.50;;;0.75;;
18046;SDS011;9148;51.454;13.862;2023-04-16T14:52:27;0.60;;;0.60;;
18046;SDS011;9148;51.454;13.862;2023-04-16T14:54:55;0.75;;;0.70;;
18046;SDS011;9148;51.454;13.862;2023-04-16T14:57:21;1.25;;;0.70;;
18046;SDS011;9148;51.454;13.862;2023-04-16T14:59:47;1.30;;;0.45;;
18046;SDS011;9148;51.454;13.862;2023-04-16T15:02:13;0.93;;;0.60;;
18046;SDS011;9148;51.454;13.862;2023-04-16T15:04:39;0.47;;;0.47;;
18046;SDS011;9148;51.454;13.862;2023-04-16T15:07:05;0.60;;;0.50;;
18046;SDS011;9148;51.454;13.862;2023-04-16T15:09:30;0.82;;;0.40;;
18046;SDS011;9148;51.454;13.862;2023-04-16T15:11:58;0.67;;;0.60;;